Terminal Aerodrome Forecast
Issued by NWS

Home | Current Version | Previous Version | Text Only | Print | Product List | Glossary On
Versions: 1 2 3 4 5 6 7 8 9 10 11 12
000
FTUS46 KLOX 281100 RRA
TAFLGB
TAF
KLGB 281147Z 2812/2912 VRB03KT P6SM SCT006
     FM281300 VRB03KT 4SM BR OVC005
     FM281600 VRB03KT 5SM HZ SCT008
     FM281800 18006KT P6SM SKC
     FM282300 29010KT P6SM SKC
     FM290400 VRB03KT P6SM SKC
     FM290900 VRB03KT 4SM BR BKN007
     FM291100 VRB03KT 3SM BR OVC005=

USA.gov is the U.S. government's official web portal to all federal, state and local government web resources and services.